Roberto Rodrigues

Olheiro-Chefe - Atlético Mineiro
23 Abr 2028
Domingo
Processo

Personalidade

Adaptabilidade (9) Ambição (2) Controvérsia (17) Lealdade (11) Pressão (9) Profissionalismo (1) Espírito Esportivo (17) Temperamento (13)

Perfil

Estilo de Treinamento Democrático
Licença Nacional B
Determinação 9
Gestão de Pessoas 11
Motivação 11
Disciplina 11
Satisfação no Trabalho
100%
Fadiga
0%
Função Olheiro-Chefe
Salário 107.5K p/s
Contrato 14.03.2030

Desempenho

Comportamento Bom
Eficácia do Treinamento
59%
Desenvolvimento do Jogador
65%
Prevenção de Lesões
55%
Implementação Tática
50%

Eventos Recentes

Recomendou um alvo de transferência agora
Participou de uma reunião de recrutamento agora
Participou de uma reunião de recrutamento agora
Participou de uma reunião de recrutamento agora
Recomendou um alvo de transferência agora
Avaliou um jogador agora
Avaliou um jogador agora
Avaliou um jogador agora

Monitorando agora

312
Jogador Clube Status Habilidade Confiança Observado Última observação Último voto
Fábio Carvalho Brentford Ativo 149 / 140 40% 7 22.04.2028 -
Evanilson Southampton Ativo 158 / 141 40% 8 22.04.2028 -
Nico Paz Aston Villa Ativo 164 / 172 40% 3 22.04.2028 -
Charles De Ketelaere Tottenham Ativo 164 / 163 40% 3 21.04.2028 -
Taiwo Awoniyi Middlesbrough Ativo 148 / 128 40% 4 21.04.2028 -
Tommy Conway Middlesbrough Ativo 135 / 147 40% 1 21.04.2028 -
Santiago Castro AS Roma Ativo 159 / 161 40% 5 20.04.2028 -
Christian Pulisic AC Milan Ativo 169 / 154 40% 8 20.04.2028 -
Thiago Brentford Ativo 157 / 151 40% 5 20.04.2028 -
Ismaïla Sarr Crystal Palace Ativo 152 / 147 40% 10 19.04.2028 -
Nicolas Jackson Aston Villa Ativo 153 / 156 40% 11 19.04.2028 -
Morgan Whittaker Bristol Rovers Ativo 137 / 134 40% 7 18.04.2028 -
Kevin Schade Chelsea Ativo 150 / 163 40% 2 18.04.2028 -
Rodrigo Muniz Fulham Ativo 143 / 136 40% 6 17.04.2028 -
Dango Ouattara Leicester City Ativo 155 / 157 40% 9 17.04.2028 -
Callum O'Hare Sheffield United Ativo 134 / 136 40% 8 17.04.2028 -
André Wolverhampton Ativo 152 / 139 40% 2 16.04.2028 -
Boubacar Kamara Aston Villa Ativo 167 / 166 40% 4 16.04.2028 -
Zeki Amdouni Luton Town Ativo 143 / 152 40% 4 16.04.2028 -
Bafodé Diakité Plymouth Argyle Ativo 153 / 134 40% 1 16.04.2028 -
Adrien Truffert Bournemouth Ativo 150 / 152 40% 5 15.04.2028 -
Danilo Botafogo Ativo 143 / 130 40% 9 15.04.2028 -
Lucas Paquetá Flamengo Ativo 138 / 142 40% 3 15.04.2028 -
William Osula Wrexham Ativo 144 / 126 40% 3 12.04.2028 -
Mohamed-Ali Cho Hull City Ativo 142 / 133 40% 6 11.04.2028 -
Vinícius Júnior Paris Saint-Germain Ativo 185 / 166 40% 5 11.04.2028 -
Nicolás González Juventus Ativo 155 / 164 40% 2 11.04.2028 -
Jayden Danns Bradford City Ativo 138 / 136 40% 1 10.04.2028 -
Zito Luvumbo Cagliari Ativo 130 / 134 40% 2 08.04.2028 -
Evann Guessand Aston Villa Ativo 149 / 149 40% 3 07.04.2028 -
Emanuel Emegha Chelsea Ativo 153 / 136 40% 3 06.04.2028 -
Musa Barrow ES Setif Ativo 144 / 155 40% 5 04.04.2028 -
Kaio Jorge Mainz 05 Ativo 153 / 139 40% 2 03.04.2028 -
Tammy Abraham Aston Villa Ativo 144 / 152 40% 6 02.04.2028 -
Brennan Johnson Middlesbrough Ativo 148 / 153 40% 3 01.04.2028 -
Caio Alexandre Bahia Ativo 142 / 139 40% 11 31.03.2028 -
Matheus Bidu Corinthians Ativo 131 / 122 40% 12 31.03.2028 -
Jayden Bogle Leeds United Ativo 139 / 128 40% 1 31.03.2028 -
Callum Brittain Middlesbrough Ativo 130 / 131 40% 4 27.03.2028 -
Vitaly Janelt Derby County Ativo 148 / 134 40% 2 27.03.2028 -
Georginio Rutter Brighton Ativo 149 / 144 40% 7 24.03.2028 -
José Manuel López Palmeiras Ativo 139 / 128 40% 7 22.03.2028 -
João Pedro Chelsea Ativo 162 / 161 40% 5 22.03.2028 -
Youssef En-Nesyri Padideh Ativo 143 / 129 40% 2 22.03.2028 -
Enzo Díaz Sport Recife Ativo 131 / 123 40% 3 21.03.2028 -
Jack Hinshelwood Watford Ativo 145 / 143 40% 2 21.03.2028 -
Sebastiano Esposito Cagliari Ativo 151 / 145 40% 2 19.03.2028 -
Maximiliano Araújo West Ham United Ativo 150 / 167 40% 1 18.03.2028 -
Gonzalo Fulham Ativo 146 / 139 40% 5 11.03.2028 -
Angeliño AS Roma Ativo 155 / 151 40% 1 08.03.2028 -
Morgan Rogers Chelsea Ativo 164 / 147 40% 2 07.03.2028 -
Pedro Flamengo Ativo 150 / 153 40% 6 06.03.2028 Observar
Jarrod Bowen West Ham United Ativo 165 / 159 40% 3 04.03.2028 -
Kauã Elias Shakhtar Ativo 137 / 153 40% 2 29.02.2028 -
Dwight McNeil Crystal Palace Ativo 152 / 156 40% 2 27.02.2028 -
Liel Abada Inter Miami CF Ativo 142 / 127 40% 1 27.02.2028 -
Dominic Solanke Tottenham Ativo 155 / 162 40% 4 26.02.2028 -
Martín Ojeda Orlando City Ativo 137 / 139 40% 3 21.02.2028 -
Manu Koné AS Roma Ativo 163 / 174 40% 8 20.02.2028 -
Óscar Mingueza Crystal Palace Ativo 151 / 156 40% 3 19.02.2028 -
Alex Scott Bournemouth Ativo 155 / 144 40% 4 19.02.2028 -
Marcos Antonio Sport Recife Ativo 143 / 151 40% 6 15.02.2028 -
Matteo Ruggeri Middlesbrough Ativo 157 / 154 40% 1 15.02.2028 -
Eddie Nketiah Crystal Palace Ativo 146 / 148 40% 2 11.02.2028 -
Mats Wieffer Brighton Ativo 147 / 136 40% 2 09.02.2028 -
Iliman N'Diaye Everton Ativo 166 / 147 40% 1 09.02.2028 -
Agustín Giay Palmeiras Ativo 141 / 134 40% 7 12.01.2028 -
Léo Ortiz Flamengo Ativo 134 / 127 40% 8 11.01.2028 -
Gustavo Marques Bragantino Ativo 133 / 130 40% 3 11.01.2028 -
Matheus Pereira Fortaleza Ativo 131 / 134 40% 4 11.01.2028 -
Luciano Juba Bahia Ativo 133 / 137 40% 4 11.01.2028 -
Henry Mosquera Bragantino Pré-selecionado 138 / 136 79% 3 11.01.2028 Fortemente a favor
André Luiz Sporting Kansas City Ativo 135 / 147 40% 1 11.01.2028 -
Vitinho Botafogo Ativo 138 / 136 40% 8 09.01.2028 -
Rico Henry River Plate Ativo 142 / 137 40% 6 09.01.2028 -
Vitão Flamengo Ativo 144 / 137 40% 4 09.01.2028 -
Nuno Moreira Vasco da Gama Ativo 137 / 119 40% 1 09.01.2028 Mais informações
Benjamín Rollheiser Santos Ativo 139 / 121 40% 1 09.01.2028 -
Maurício Palmeiras Ativo 134 / 123 40% 1 06.01.2028 -
Jhon Arias Palmeiras Ativo 139 / 130 40% 1 06.01.2028 -
Facundo Colidio Vasco da Gama Ativo 131 / 121 40% 1 06.01.2028 Mais informações
Allan Saint-Maximin Charlotte Football Club Ativo 137 / 150 40% 2 04.01.2028 -
Ramón Sosa Palmeiras Ativo 139 / 138 40% 1 04.01.2028 -
Anthony Patterson Wrexham Ativo 140 / 122 40% 1 28.12.2027 -
Sol Brynn Bradford City Ativo 137 / 127 40% 1 28.12.2027 -
Dayne St. Clair Inter Miami CF Ativo 125 / 132 40% 1 28.12.2027 -
Thaciano Santos Perdido 119 / 135 79% 1 27.12.2027 -
Lucas Paquetá Flamengo Perdido 141 / 147 40% 8 14.12.2027 -
Nuno Moreira Vasco da Gama Perdido 136 / 118 79% 1 01.12.2027 Mais informações
Jorge Carrascal Flamengo Ativo 139 / 131 40% 1 30.11.2027 -
Alex Luna Instituto Ativo 136 / 125 40% 1 30.11.2027 -
Paulo Henrique Vasco da Gama Ativo 127 / 144 40% 3 26.11.2027 -
Marco Di Cesare Racing Club Ativo 133 / 120 40% 4 26.11.2027 -
Santiago Sosa Vasco da Gama Ativo 134 / 127 40% 4 25.11.2027 -
Bruno Gomes Internacional Ativo 135 / 144 40% 8 23.11.2027 -
Emerson Royal Flamengo Ativo 134 / 148 40% 3 21.11.2027 -
Nicolás Romero Minnesota United FC Ativo 125 / 134 40% 2 18.11.2027 -
Ignacio Vázquez Platense Ativo 129 / 130 40% 6 17.11.2027 -
Arthur Flamengo Ativo 137 / 135 40% 5 16.11.2027 -
Breno Bidon Corinthians Ativo 126 / 126 40% 4 16.11.2027 -
Lucas Veríssimo Santos Ativo 141 / 131 40% 3 12.11.2027 -
Facundo Mura Inter Miami CF Ativo 130 / 140 40% 4 11.11.2027 -
Santiago Ramos Mingo Bahia Ativo 138 / 128 40% 2 10.11.2027 -
David Brekalo Orlando City Ativo 128 / 136 40% 3 10.11.2027 -
Alexandro Bernabei Internacional Ativo 138 / 124 40% 6 06.11.2027 -
Santiago González Tigre Ativo 132 / 118 40% 6 06.11.2027 -
Damián Bobadilla Sport Recife Ativo 136 / 130 40% 4 31.10.2027 -
Niklas Dorsch Toronto FC Ativo 127 / 144 40% 4 28.10.2027 -
Marcel Hartel St. Louis CITY SC Ativo 126 / 145 40% 4 17.10.2027 -
Guga Fluminense Ativo 131 / 126 40% 5 10.10.2027 -
Emanuel Mammana Vélez Ativo 134 / 129 40% 1 07.10.2027 -
Juan Carlos Portillo River Plate Ativo 129 / 119 40% 2 03.10.2027 -
Matheuzinho Corinthians Ativo 136 / 125 40% 4 30.09.2027 -
Franco Ibarra Rosario Central Ativo 134 / 136 40% 1 27.09.2027 -
Felipe Peña Biafore Lanús Ativo 134 / 119 40% 2 26.09.2027 -
Braian Aguirre Internacional Ativo 128 / 119 40% 1 25.09.2027 -
Guilherme Arana Fluminense Ativo 140 / 125 40% 3 17.09.2027 -
Lucas Sanabria LA Galaxy Ativo 127 / 140 40% 2 17.09.2027 -
Fredrik Bjørkan Bodo/Glimt Ativo 124 / 109 40% 1 15.09.2027 -
Takahiro Sekine Sydney FC Ativo 137 / 114 40% 1 11.09.2027 -
Martinelli Fluminense Ativo 139 / 135 40% 1 27.08.2027 -
Renato Tapia Al Wasl Ativo 147 / 129 40% 1 25.08.2027 -
César Inga Universitario Ativo 135 / 135 40% 1 23.08.2027 -
Valentino Lazaro Al Ain Ativo 150 / 123 40% 1 22.08.2027 -
Mamadou Coulibaly Al Jazira Ativo 128 / 139 40% 1 22.08.2027 -
Conrad Wallem Djurgarden Ativo 136 / 141 40% 1 21.08.2027 -
Evan N'Dicka AS Roma Ativo 164 / 176 40% 2 19.08.2027 -
Alessandro Bastoni Inter Ativo 171 / 182 40% 1 19.08.2027 -
Rolando Mandragora Torino Ativo 152 / 143 40% 1 19.08.2027 -
André-Franck Zambo Anguissa Napoli Ativo 169 / 147 40% 8 17.08.2027 -
Sebastiano Luperto Cremonese Ativo 144 / 150 40% 1 17.08.2027 -
Nicolò Rovella Lazio Ativo 158 / 143 40% 2 16.08.2027 -
Nadir Zortea Bologna Ativo 137 / 158 40% 1 16.08.2027 -
Mateu Morey Girona Ativo 137 / 143 40% 2 13.08.2027 -
Lewis Ferguson Bologna Ativo 143 / 164 40% 1 13.08.2027 -
Arthur Atta Fiorentina Ativo 149 / 134 40% 1 12.08.2027 -
Mitchel Bakker Modena Ativo 131 / 116 40% 1 10.08.2027 -
Raoul Bellanova Atalanta Ativo 157 / 149 40% 1 10.08.2027 -
Mehdi Dorval Catanzaro Ativo 137 / 119 40% 1 10.08.2027 -
Harry Clarke Preston Ativo 127 / 119 40% 7 09.08.2027 -
Max Bird Birmingham Ativo 137 / 122 40% 8 09.08.2027 -
Max Johnston Derby County Ativo 128 / 136 40% 4 08.08.2027 -
Tyler Adams Bournemouth Ativo 164 / 152 40% 3 08.08.2027 -
Alfie Doughty Millwall Ativo 138 / 137 40% 1 08.08.2027 -
Hidemasa Morita Hull City Ativo 143 / 143 40% 6 07.08.2027 -
Amadou Onana Aston Villa Ativo 159 / 151 40% 3 05.08.2027 -
Jonathan Varane Queens Park Rangers Ativo 130 / 140 40% 1 05.08.2027 -
Yeremy Pino Crystal Palace Ativo 149 / 151 40% 1 20.07.2027 -
Gianluca Scamacca Atalanta Ativo 152 / 163 40% 3 21.06.2027 -
Giacomo Raspadori Atalanta Ativo 154 / 162 40% 2 29.05.2027 -
Milan van Ewijk Coventry City Ativo 136 / 141 40% 8 29.05.2027 -
Olivier Boscagli Brighton Ativo 150 / 148 40% 2 29.05.2027 -
Dara O'Shea Ipswich Town Ativo 139 / 139 40% 5 26.05.2027 -
Ethan Galbraith Swansea City Ativo 133 / 124 40% 3 26.05.2027 -
Moisés Caicedo Chelsea Ativo 177 / 161 40% 2 26.05.2027 -
Ollie Scarles West Ham United Ativo 134 / 133 40% 1 25.05.2027 -
Jacob Greaves Ipswich Town Ativo 136 / 139 40% 9 24.05.2027 -
Jarrad Branthwaite Everton Ativo 150 / 157 40% 2 24.05.2027 -
Juanlu Bournemouth Ativo 143 / 164 40% 3 23.05.2027 -
James Garner Everton Ativo 145 / 134 40% 1 23.05.2027 -
Nordi Mukiele Sunderland Ativo 147 / 161 40% 4 22.05.2027 -
Tino Livramento Newcastle United Ativo 151 / 159 40% 2 22.05.2027 -
Brooke Norton-Cuffy Hull City Ativo 142 / 141 40% 5 21.05.2027 -
Azor Matusiwa Ipswich Town Ativo 136 / 126 40% 6 21.05.2027 -
Lorenzo Colombo Genoa Ativo 145 / 120 40% 2 21.05.2027 -
James Trafford Leeds United Ativo 140 / 148 40% 3 20.05.2027 -
Joseph Leclercq Tottenham Ativo 151 / 163 40% 1 20.05.2027 -
Leon Goretzka Aston Villa Ativo 148 / 163 40% 15 18.05.2027 -
Yehor Yarmoliuk Brentford Ativo 153 / 161 40% 1 18.05.2027 -
Xaver Schlager Nottingham Forest Ativo 145 / 146 40% 3 17.05.2027 -
Robin Roefs Sunderland Ativo 142 / 142 40% 2 16.05.2027 -
Cody Gakpo Liverpool Ativo 165 / 157 40% 1 16.05.2027 -
Mile Svilar AS Roma Ativo 159 / 149 40% 1 16.05.2027 -
Pedro Porro Tottenham Ativo 149 / 164 40% 4 15.05.2027 -
Jake O'Brien Everton Ativo 142 / 138 40% 1 12.05.2027 -
Khéphren Thuram Juventus Ativo 165 / 163 40% 1 11.05.2027 -
Nico González Newcastle United Ativo 166 / 149 40% 4 09.05.2027 -
Welington Southampton Ativo 136 / 135 40% 1 06.05.2027 -
Lautaro Martínez Inter Ativo 173 / 182 40% 1 04.05.2027 -
Matthew Targett Hull City Ativo 129 / 130 40% 4 02.05.2027 -
Dennis Cirkin Queens Park Rangers Ativo 134 / 129 40% 1 02.05.2027 -
Taty Castellanos West Ham United Ativo 153 / 131 40% 2 01.05.2027 -
Patrick Cutrone Monza Ativo 137 / 121 40% 3 30.04.2027 -
Shea Charles Southampton Ativo 130 / 141 40% 2 27.04.2027 -
Jørgen Strand Larsen Brighton Ativo 145 / 129 40% 2 25.04.2027 -
Quinten Timber Crystal Palace Ativo 157 / 153 40% 1 24.04.2027 -
Lewis Hall Newcastle United Ativo 145 / 152 40% 1 20.04.2027 -
Edoardo Bove Watford Ativo 137 / 129 40% 1 20.04.2027 -
Maxence Lacroix Chelsea Ativo 149 / 149 40% 1 19.04.2027 -
Kyle Walker-Peters West Ham United Ativo 142 / 140 40% 3 18.04.2027 -
Fran Vieites Walsall Ativo 119 / 126 40% 1 18.04.2027 -
Elia Caprile Cagliari Ativo 139 / 159 40% 1 18.04.2027 -
Florentino Luís Ipswich Town Ativo 147 / 139 40% 7 15.04.2027 -
Maduka Okoye Udinese Ativo 142 / 153 40% 1 15.04.2027 -
Nicolò Tresoldi Club Brugge Ativo 139 / 118 40% 2 12.04.2027 -
Vedat Muriqi Fenerbahce Ativo 143 / 152 40% 1 10.04.2027 -
Kenny Tete Fulham Ativo 145 / 130 40% 2 07.04.2027 -
Oliver Skipp Leicester City Ativo 135 / 113 40% 1 07.04.2027 -
Luke McNally Bristol City Ativo 130 / 130 40% 4 06.04.2027 -
Gustavo Hamer Sheffield United Ativo 134 / 133 40% 1 03.04.2027 -
Diego Gómez Brighton Ativo 148 / 162 40% 1 02.04.2027 -
Tomáš Souček West Ham United Ativo 137 / 131 40% 1 02.04.2027 -
Nobel Mendy Hull City Ativo 139 / 143 40% 2 30.03.2027 -
Enzo Barrenechea Benfica Ativo 145 / 155 40% 15 27.03.2027 -
Bright Arrey-Mbi Braga Ativo 139 / 124 40% 8 27.03.2027 -
Alberto Costa Porto Ativo 151 / 162 40% 13 26.03.2027 -
Dinis Pinto Moreirense Ativo 131 / 132 40% 8 26.03.2027 -
Rodrigo Pinheiro Famalicao Ativo 129 / 135 40% 1 24.03.2027 -
Iván Fresneda Sporting CP Ativo 146 / 152 40% 9 22.03.2027 -
Javi Sánchez Arouca Ativo 136 / 130 40% 4 22.03.2027 -
Sikou Niakaté Braga Ativo 140 / 124 40% 2 20.03.2027 -
Eduardo Quaresma Sporting CP Ativo 144 / 144 40% 5 20.03.2027 -
Víctor Gómez Braga Ativo 143 / 143 40% 15 19.03.2027 -
Andrea Pinamonti Lazio Ativo 134 / 137 40% 1 17.03.2027 -
Jordan Holsgrove Estoril Praia Ativo 135 / 145 40% 4 15.03.2027 -
Mathias De Amorim Famalicao Ativo 126 / 116 40% 3 15.03.2027 -
Dawda Camara Alverca Ativo 124 / 130 40% 1 14.03.2027 -
Yousef Salech Cardiff City Ativo 121 / 136 40% 1 14.03.2027 -
Denis Huseinbašić Braga Ativo 124 / 123 40% 1 11.03.2027 -
João Palhinha Benfica Perdido 152 / 141 40% 11 10.03.2027 -
Pablo Rosario Porto Ativo 143 / 154 40% 14 10.03.2027 -
Tomás Araújo Benfica Ativo 145 / 160 40% 2 08.03.2027 -
Toby Collyer West Bromwich Albion Ativo 132 / 149 40% 2 07.03.2027 -
Jean-Baptiste Gorby Braga Ativo 135 / 117 40% 2 05.03.2027 -
Zeno Debast Sporting CP Ativo 135 / 130 40% 1 04.03.2027 -
Gabriel Brazão Santos Ativo 133 / 128 40% 1 03.03.2027 -
Pau Víctor Braga Ativo 146 / 135 40% 8 02.03.2027 -
Brian Brobbey Sunderland Ativo 134 / 131 40% 2 02.03.2027 -
Sidney Lima Santa Clara Ativo 133 / 143 40% 2 02.03.2027 -
Toti Wolverhampton Ativo 130 / 145 40% 1 02.03.2027 -
Teboho Mokoena Mamelodi Sundowns Ativo 139 / 123 40% 1 21.02.2027 -
Luís Esteves Atlas Ativo 132 / 112 40% 2 19.02.2027 -
Adonis Frías Atlas Ativo 125 / 144 40% 3 18.02.2027 -
Rubén Duarte Pumas UNAM Ativo 133 / 126 40% 5 17.02.2027 -
Nathan Silva Pumas UNAM Ativo 126 / 119 40% 1 15.02.2027 -
Bilal Bayazıt Kayserispor Ativo 123 / 133 40% 1 13.02.2027 -
Tijjani Reijnders Al-Qadisiyah Ativo 157 / 151 40% 1 11.02.2027 -
Nicolás Ibáñez Cruz Azul Ativo 142 / 118 40% 1 08.02.2027 -
João Félix Dinamo Moscow Ativo 150 / 165 40% 3 04.02.2027 -
Ricardo Horta Braga Ativo 153 / 133 40% 4 03.02.2027 -
Diego Rossi Monterrey Ativo 134 / 132 40% 1 03.02.2027 -
Jesús Gallardo Toluca Ativo 139 / 123 40% 1 02.02.2027 -
Joe Gelhardt Hull City Ativo 124 / 127 40% 2 27.01.2027 -
Aaron Hickey Brentford Ativo 145 / 133 40% 1 24.01.2027 -
Lazar Marković Apollon Ativo 137 / 130 40% 1 24.01.2027 -
Gustavo Silva Vitoria Guimaraes Ativo 119 / 122 40% 2 22.01.2027 -
Talisca Fenerbahce Ativo 154 / 129 40% 2 18.01.2027 -
Rodrigo Echeverría Leon Ativo 132 / 143 40% 1 17.01.2027 -
Rafael Navarro Famalicao Ativo 121 / 130 40% 1 17.01.2027 -
Dylan Nandín Arouca Ativo 116 / 129 40% 1 17.01.2027 -
Andrew Robertson Tottenham Ativo 152 / 155 40% 2 12.01.2027 -
Joaquim Tigres Ativo 130 / 125 40% 1 11.01.2027 -
Juan Pablo Freytes Fluminense Ativo 128 / 132 40% 1 10.01.2027 -
Wesley Saïd RC Lens Ativo 135 / 117 40% 1 10.01.2027 -
Leandro Barreiro Benfica Ativo 141 / 146 40% 4 04.01.2027 -
Sorriso Famalicao Ativo 126 / 113 40% 3 03.01.2027 -
Negueba Mirassol Perdido 122 / 135 40% 1 03.01.2027 -
Yanis Begraoui Estoril Praia Ativo 133 / 127 40% 2 02.01.2027 -
André Lacximicant Estoril Praia Ativo 116 / 104 40% 1 02.01.2027 -
Eduardo Lozano Botafogo Ativo 139 / 154 40% 1 29.12.2026 -
Odsonne Édouard Olympique Lyonnais Ativo 138 / 126 40% 1 28.12.2026 -
Yoane Wissa Newcastle United Ativo 147 / 143 40% 5 25.12.2026 -
Ayase Ueda LOSC Lille Ativo 138 / 142 40% 2 25.12.2026 -
Petar Musa FC Dallas Ativo 130 / 134 40% 1 25.12.2026 -
Romarinho Criciuma Ativo 122 / 120 72% 1 21.12.2026 Aprovar
Hamza Igamane LOSC Lille Ativo 139 / 149 40% 1 21.12.2026 -
Gabriel Silva Braga Ativo 127 / 127 40% 1 16.12.2026 -
Vinícius Lopes Santa Clara Ativo 127 / 134 40% 1 07.12.2026 -
Matheuzinho Vitória Ativo 126 / 122 72% 1 06.12.2026 Aprovar
Pepê Porto Ativo 149 / 161 40% 8 28.11.2026 -
João Carvalho Estoril Praia Ativo 142 / 146 40% 3 28.11.2026 -
Carlos Álvarez Club America Ativo 129 / 120 40% 5 27.11.2026 -
Fredrik Aursnes Benfica Ativo 140 / 161 40% 5 25.11.2026 -
Heorhii Sudakov Benfica Ativo 141 / 162 40% 10 25.11.2026 -
Álex Berenguer Lokomotiv Moscow Ativo 143 / 150 40% 3 19.11.2026 -
William Gomes Porto Ativo 149 / 133 40% 6 17.11.2026 -
Geny Sporting CP Ativo 150 / 150 40% 7 09.11.2026 -
Rodrigo Garro Corinthians Ativo 142 / 126 40% 1 07.11.2026 -
Carlos Rodríguez Cruz Azul Ativo 129 / 134 40% 2 04.11.2026 -
Victor Froholdt Porto Ativo 143 / 141 40% 9 01.11.2026 -
Che Adams Torino Ativo 130 / 130 40% 1 30.10.2026 -
Francisco Moura Porto Ativo 137 / 131 40% 1 28.10.2026 -
Samuel Dahl Benfica Ativo 128 / 129 40% 3 23.10.2026 -
Agustín Palavecino Cruz Azul Ativo 127 / 118 40% 2 15.10.2026 -
Andreas Schjelderup Benfica Ativo 133 / 135 40% 1 15.10.2026 -
Andreas Pereira Palmeiras Ativo 135 / 138 40% 3 14.10.2026 -
Leroy Sané Galatasaray Ativo 154 / 159 40% 1 10.10.2026 -
Igor Paixão Olympique de Marseille Ativo 144 / 157 40% 1 09.10.2026 -
Igor Jesus Nottingham Forest Ativo 135 / 132 40% 2 08.10.2026 -
Alexey Miranchuk Atlanta United FC Ativo 134 / 139 40% 2 07.10.2026 -
John McGinn Aston Villa Ativo 143 / 144 40% 1 03.10.2026 -
Sergi Altimira Sporting CP Ativo 128 / 123 40% 3 30.09.2026 -
Lisandro Martínez Ajax Ativo 144 / 161 40% 1 29.09.2026 -
Nehuén Pérez Porto Ativo 150 / 124 40% 1 29.09.2026 -
Carlos Vicente Birmingham Ativo 146 / 122 40% 1 24.09.2026 -
Elliot Anderson Manchester City Ativo 158 / 138 40% 1 22.09.2026 -
Donyell Malen AS Roma Ativo 142 / 157 40% 2 14.09.2026 -
Amine Gouiri Olympique de Marseille Ativo 142 / 131 40% 1 14.09.2026 -
Roberto Fernández Braga Ativo 140 / 155 40% 4 03.09.2026 -
Ollie Watkins Al-Hilal Ativo 149 / 133 40% 1 02.09.2026 -
Morgan Gibbs-White Nottingham Forest Ativo 162 / 141 40% 1 31.08.2026 -
Luis Romo Guadalajara Ativo 128 / 148 40% 1 20.08.2026 -
Fernando Gorriarán Tigres Ativo 129 / 145 40% 1 18.08.2026 -
Alejandro Zendejas Club America Ativo 134 / 119 40% 2 16.08.2026 -
Kaoru Mitoma Brighton Ativo 163 / 139 40% 1 13.08.2026 -
Dodi Lukébakio Benfica Ativo 144 / 135 40% 1 09.08.2026 -
Alexander Sørloth Atlético Madrid Ativo 148 / 136 40% 1 09.08.2026 -
Nuno Santos Sporting CP Ativo 127 / 147 40% 1 06.08.2026 -
Marc Cucurella Real Madrid Ativo 155 / 143 40% 1 06.08.2026 -
Antonee Robinson Fulham Ativo 151 / 164 40% 1 03.08.2026 -
Alejandro Grimaldo Atlético Madrid Ativo 164 / 163 40% 1 01.08.2026 -
Jorge De Frutos Rayo Vallecano Ativo 154 / 151 40% 1 01.08.2026 -